sensor_id;sensor_type;location;lat;lon;timestamp;pressure;altitude;pressure_sealevel;temperature;humidity
16461;BME280;8341;42.048;24.650;2023-09-19T00:02:01;97666.63;;;16.87;75.19
16461;BME280;8341;42.048;24.650;2023-09-19T00:04:32;97660.84;;;16.90;74.96
16461;BME280;8341;42.048;24.650;2023-09-19T00:06:58;97669.59;;;16.95;75.07
16461;BME280;8341;42.048;24.650;2023-09-19T00:09:28;97672.06;;;17.09;75.36
16461;BME280;8341;42.048;24.650;2023-09-19T00:11:55;97670.28;;;17.17;73.87
16461;BME280;8341;42.048;24.650;2023-09-19T00:14:24;97673.06;;;17.06;74.10
16461;BME280;8341;42.048;24.650;2023-09-19T00:16:51;97668.09;;;16.94;74.86
16461;BME280;8341;42.048;24.650;2023-09-19T00:19:19;97665.09;;;16.86;75.51
16461;BME280;8341;42.048;24.650;2023-09-19T00:21:48;97664.84;;;16.89;75.09
16461;BME280;8341;42.048;24.650;2023-09-19T00:24:15;97659.09;;;16.82;74.50
16461;BME280;8341;42.048;24.650;2023-09-19T00:26:43;97661.59;;;16.85;74.11
16461;BME280;8341;42.048;24.650;2023-09-19T00:29:12;97666.63;;;16.81;74.69
16461;BME280;8341;42.048;24.650;2023-09-19T00:31:43;97658.84;;;16.80;74.86
16461;BME280;8341;42.048;24.650;2023-09-19T00:34:09;97660.13;;;16.79;74.89
16461;BME280;8341;42.048;24.650;2023-09-19T00:36:36;97663.59;;;16.79;76.03
16461;BME280;8341;42.048;24.650;2023-09-19T00:39:06;97654.63;;;16.73;75.71
16461;BME280;8341;42.048;24.650;2023-09-19T00:41:34;97650.88;;;16.60;75.90
16461;BME280;8341;42.048;24.650;2023-09-19T00:44:02;97652.88;;;16.54;77.26
16461;BME280;8341;42.048;24.650;2023-09-19T00:46:29;97646.84;;;16.50;77.53
16461;BME280;8341;42.048;24.650;2023-09-19T00:48:58;97638.63;;;16.55;77.40
16461;BME280;8341;42.048;24.650;2023-09-19T00:51:25;97637.09;;;16.65;76.46
16461;BME280;8341;42.048;24.650;2023-09-19T00:53:53;97643.84;;;16.81;77.37
16461;BME280;8341;42.048;24.650;2023-09-19T00:56:22;97646.06;;;16.82;75.86
16461;BME280;8341;42.048;24.650;2023-09-19T00:58:49;97647.59;;;16.72;75.43
16461;BME280;8341;42.048;24.650;2023-09-19T01:01:16;97650.34;;;16.67;76.24
16461;BME280;8341;42.048;24.650;2023-09-19T01:03:44;97641.13;;;16.53;76.95
16461;BME280;8341;42.048;24.650;2023-09-19T01:06:11;97643.88;;;16.53;77.50
16461;BME280;8341;42.048;24.650;2023-09-19T01:08:38;97644.59;;;16.59;76.95
16461;BME280;8341;42.048;24.650;2023-09-19T01:11:10;97646.13;;;16.55;76.95
16461;BME280;8341;42.048;24.650;2023-09-19T01:13:48;97637.34;;;16.51;77.33
16461;BME280;8341;42.048;24.650;2023-09-19T01:16:26;97630.84;;;16.43;77.07
16461;BME280;8341;42.048;24.650;2023-09-19T01:19:07;97637.34;;;16.51;76.38
16461;BME280;8341;42.048;24.650;2023-09-19T01:21:47;97630.56;;;16.13;79.30
16461;BME280;8341;42.048;24.650;2023-09-19T01:24:41;97631.06;;;15.95;81.36
16461;BME280;8341;42.048;24.650;2023-09-19T01:27:30;97623.50;;;15.68;82.95
16461;BME280;8341;42.048;24.650;2023-09-19T01:30:09;97632.75;;;15.64;83.77
16461;BME280;8341;42.048;24.650;2023-09-19T01:32:37;97632.53;;;15.68;83.71
16461;BME280;8341;42.048;24.650;2023-09-19T01:35:06;97633.53;;;15.76;83.57
16461;BME280;8341;42.048;24.650;2023-09-19T01:37:38;97633.03;;;15.78;83.21
16461;BME280;8341;42.048;24.650;2023-09-19T01:40:10;97631.00;;;15.67;83.72
16461;BME280;8341;42.048;24.650;2023-09-19T01:42:45;97635.03;;;15.66;83.72
16461;BME280;8341;42.048;24.650;2023-09-19T01:45:22;97638.53;;;15.78;83.18
16461;BME280;8341;42.048;24.650;2023-09-19T01:47:52;97632.28;;;15.83;83.02
16461;BME280;8341;42.048;24.650;2023-09-19T01:50:29;97638.56;;;15.94;83.33
16461;BME280;8341;42.048;24.650;2023-09-19T01:53:02;97628.81;;;15.99;81.69
16461;BME280;8341;42.048;24.650;2023-09-19T01:55:30;97634.06;;;15.97;81.34
16461;BME280;8341;42.048;24.650;2023-09-19T01:58:06;97627.56;;;16.00;82.42
16461;BME280;8341;42.048;24.650;2023-09-19T02:00:37;97635.56;;;15.98;81.39
16461;BME280;8341;42.048;24.650;2023-09-19T02:03:04;97637.78;;;15.83;79.47
16461;BME280;8341;42.048;24.650;2023-09-19T02:05:32;97629.72;;;15.57;80.88
16461;BME280;8341;42.048;24.650;2023-09-19T02:07:58;97634.78;;;15.75;81.25
16461;BME280;8341;42.048;24.650;2023-09-19T02:10:26;97640.78;;;15.68;80.99
16461;BME280;8341;42.048;24.650;2023-09-19T02:12:53;97631.75;;;15.68;81.45
16461;BME280;8341;42.048;24.650;2023-09-19T02:15:20;97637.28;;;15.73;81.77
16461;BME280;8341;42.048;24.650;2023-09-19T02:17:49;97626.25;;;15.68;81.90
16461;BME280;8341;42.048;24.650;2023-09-19T02:20:14;97617.78;;;15.71;81.51
16461;BME280;8341;42.048;24.650;2023-09-19T02:22:42;97623.03;;;15.63;82.70
16461;BME280;8341;42.048;24.650;2023-09-19T02:25:09;97592.50;;;15.50;82.15
16461;BME280;8341;42.048;24.650;2023-09-19T02:27:36;97615.03;;;15.65;82.33
16461;BME280;8341;42.048;24.650;2023-09-19T02:30:06;97612.78;;;15.81;82.83
16461;BME280;8341;42.048;24.650;2023-09-19T02:32:33;97619.75;;;15.65;83.77
16461;BME280;8341;42.048;24.650;2023-09-19T02:35:07;97627.53;;;15.72;83.23
16461;BME280;8341;42.048;24.650;2023-09-19T02:37:36;97632.72;;;15.59;83.64
16461;BME280;8341;42.048;24.650;2023-09-19T02:40:04;97627.22;;;15.59;84.04
16461;BME280;8341;42.048;24.650;2023-09-19T02:42:44;97619.78;;;15.71;83.60
16461;BME280;8341;42.048;24.650;2023-09-19T02:45:16;97622.00;;;15.66;83.15
16461;BME280;8341;42.048;24.650;2023-09-19T02:47:44;97626.78;;;15.66;83.48
16461;BME280;8341;42.048;24.650;2023-09-19T02:50:12;97624.31;;;15.79;83.46
16461;BME280;8341;42.048;24.650;2023-09-19T02:52:42;97626.75;;;15.72;82.73
16461;BME280;8341;42.048;24.650;2023-09-19T02:55:10;97609.00;;;15.67;82.27
16461;BME280;8341;42.048;24.650;2023-09-19T02:57:37;97621.25;;;15.55;83.78
16461;BME280;8341;42.048;24.650;2023-09-19T03:00:07;97628.00;;;15.59;83.93
16461;BME280;8341;42.048;24.650;2023-09-19T03:02:35;97617.25;;;15.67;83.58
16461;BME280;8341;42.048;24.650;2023-09-19T03:05:04;97617.53;;;15.63;83.45
16461;BME280;8341;42.048;24.650;2023-09-19T03:07:33;97621.00;;;15.70;83.44
16461;BME280;8341;42.048;24.650;2023-09-19T03:10:00;97621.66;;;15.42;84.91
16461;BME280;8341;42.048;24.650;2023-09-19T03:12:27;97618.13;;;15.25;86.24
16461;BME280;8341;42.048;24.650;2023-09-19T03:14:53;97619.41;;;15.35;85.44
16461;BME280;8341;42.048;24.650;2023-09-19T03:17:20;97613.13;;;15.29;86.03
16461;BME280;8341;42.048;24.650;2023-09-19T03:19:47;97615.41;;;15.36;85.31
16461;BME280;8341;42.048;24.650;2023-09-19T03:22:14;97611.13;;;15.24;85.64
16461;BME280;8341;42.048;24.650;2023-09-19T03:24:43;97616.13;;;15.31;84.76
16461;BME280;8341;42.048;24.650;2023-09-19T03:27:10;97620.66;;;15.40;84.36
16461;BME280;8341;42.048;24.650;2023-09-19T03:29:41;97614.41;;;15.39;85.40
16461;BME280;8341;42.048;24.650;2023-09-19T03:32:08;97614.91;;;15.32;85.52
16461;BME280;8341;42.048;24.650;2023-09-19T03:34:36;97613.63;;;15.33;85.01
16461;BME280;8341;42.048;24.650;2023-09-19T03:37:04;97622.59;;;15.28;85.45
16461;BME280;8341;42.048;24.650;2023-09-19T03:39:32;97609.84;;;15.20;86.91
16461;BME280;8341;42.048;24.650;2023-09-19T03:42:00;97611.38;;;15.26;85.79
16461;BME280;8341;42.048;24.650;2023-09-19T03:44:28;97607.84;;;15.15;86.40
16461;BME280;8341;42.048;24.650;2023-09-19T03:46:55;97603.22;;;14.89;88.51
16461;BME280;8341;42.048;24.650;2023-09-19T03:49:22;97608.28;;;15.02;87.41
16461;BME280;8341;42.048;24.650;2023-09-19T03:51:49;97616.81;;;15.15;86.37
16461;BME280;8341;42.048;24.650;2023-09-19T03:54:16;97616.59;;;15.19;86.42
16461;BME280;8341;42.048;24.650;2023-09-19T03:56:45;97608.72;;;14.95;88.22
16461;BME280;8341;42.048;24.650;2023-09-19T03:59:13;97604.50;;;14.94;88.25
16461;BME280;8341;42.048;24.650;2023-09-19T04:01:40;97610.72;;;14.89;88.61
16461;BME280;8341;42.048;24.650;2023-09-19T04:04:06;97617.38;;;14.71;89.92
16461;BME280;8341;42.048;24.650;2023-09-19T04:06:34;97620.28;;;14.62;91.18
16461;BME280;8341;42.048;24.650;2023-09-19T04:09:01;97615.06;;;14.64;91.45
16461;BME280;8341;42.048;24.650;2023-09-19T04:11:29;97621.56;;;14.67;90.91
16461;BME280;8341;42.048;24.650;2023-09-19T04:13:56;97633.19;;;14.51;92.09
16461;BME280;8341;42.048;24.650;2023-09-19T04:16:24;97611.41;;;14.41;92.47
16461;BME280;8341;42.048;24.650;2023-09-19T04:18:51;97623.81;;;14.68;91.09
16461;BME280;8341;42.048;24.650;2023-09-19T04:21:18;97605.53;;;14.60;90.72
16461;BME280;8341;42.048;24.650;2023-09-19T04:23:45;97626.91;;;14.81;89.52
16461;BME280;8341;42.048;24.650;2023-09-19T04:26:12;97624.88;;;14.76;90.21
16461;BME280;8341;42.048;24.650;2023-09-19T04:28:38;97618.16;;;14.83;90.27
16461;BME280;8341;42.048;24.650;2023-09-19T04:31:06;97615.91;;;14.81;88.87
16461;BME280;8341;42.048;24.650;2023-09-19T04:33:35;97604.94;;;14.87;87.80
16461;BME280;8341;42.048;24.650;2023-09-19T04:36:02;97613.34;;;15.15;88.96
16461;BME280;8341;42.048;24.650;2023-09-19T04:38:31;97618.63;;;15.29;85.91
16461;BME280;8341;42.048;24.650;2023-09-19T04:40:57;97623.16;;;15.38;87.22
16461;BME280;8341;42.048;24.650;2023-09-19T04:43:25;97618.22;;;15.47;85.29
16461;BME280;8341;42.048;24.650;2023-09-19T04:45:52;97606.41;;;15.41;86.33
16461;BME280;8341;42.048;24.650;2023-09-19T04:48:21;97621.00;;;15.53;85.74
16461;BME280;8341;42.048;24.650;2023-09-19T04:50:51;97615.50;;;15.58;86.03
16461;BME280;8341;42.048;24.650;2023-09-19T04:53:19;97615.50;;;15.70;85.21
16461;BME280;8341;42.048;24.650;2023-09-19T04:55:50;97610.25;;;15.72;85.06
16461;BME280;8341;42.048;24.650;2023-09-19T04:58:17;97605.53;;;15.78;84.54
16461;BME280;8341;42.048;24.650;2023-09-19T05:00:44;97610.44;;;15.46;86.45
16461;BME280;8341;42.048;24.650;2023-09-19T05:03:11;97604.41;;;15.36;87.36
16461;BME280;8341;42.048;24.650;2023-09-19T05:05:38;97607.47;;;15.49;87.33
16461;BME280;8341;42.048;24.650;2023-09-19T05:08:07;97605.03;;;15.74;85.40
16461;BME280;8341;42.048;24.650;2023-09-19T05:10:35;97608.06;;;15.87;84.36
16461;BME280;8341;42.048;24.650;2023-09-19T05:13:03;97613.09;;;16.05;85.79
16461;BME280;8341;42.048;24.650;2023-09-19T05:15:30;97615.59;;;16.25;84.85
16461;BME280;8341;42.048;24.650;2023-09-19T05:17:57;97607.56;;;16.27;83.74
16461;BME280;8341;42.048;24.650;2023-09-19T05:20:24;97603.56;;;16.28;83.06
16461;BME280;8341;42.048;24.650;2023-09-19T05:22:58;97614.31;;;16.48;82.45
16461;BME280;8341;42.048;24.650;2023-09-19T05:25:28;97610.56;;;16.62;82.06
16461;BME280;8341;42.048;24.650;2023-09-19T05:27:57;97611.53;;;16.81;80.03
16461;BME280;8341;42.048;24.650;2023-09-19T05:30:24;97612.75;;;16.92;79.67
16461;BME280;8341;42.048;24.650;2023-09-19T05:32:53;97615.22;;;17.06;79.13
16461;BME280;8341;42.048;24.650;2023-09-19T05:35:20;97620.25;;;17.02;78.26
16461;BME280;8341;42.048;24.650;2023-09-19T05:37:48;97620.25;;;16.91;79.11
16461;BME280;8341;42.048;24.650;2023-09-19T05:40:16;97615.97;;;17.07;78.23
16461;BME280;8341;42.048;24.650;2023-09-19T05:42:44;97627.09;;;17.36;77.54
16461;BME280;8341;42.048;24.650;2023-09-19T05:45:11;97631.56;;;17.50;76.54
16461;BME280;8341;42.048;24.650;2023-09-19T05:47:38;97632.56;;;17.59;76.88
16461;BME280;8341;42.048;24.650;2023-09-19T05:50:09;97635.53;;;17.66;74.96
16461;BME280;8341;42.048;24.650;2023-09-19T05:52:36;97632.03;;;17.60;74.06
16461;BME280;8341;42.048;24.650;2023-09-19T05:55:04;97634.44;;;17.80;75.17
16461;BME280;8341;42.048;24.650;2023-09-19T05:57:32;97619.06;;;17.90;74.74
16461;BME280;8341;42.048;24.650;2023-09-19T06:00:01;97637.16;;;18.21;74.45
16461;BME280;8341;42.048;24.650;2023-09-19T06:02:34;97629.38;;;18.25;71.88
16461;BME280;8341;42.048;24.650;2023-09-19T06:05:01;97621.09;;;18.25;70.70
16461;BME280;8341;42.048;24.650;2023-09-19T06:07:28;97614.25;;;18.32;70.25
16461;BME280;8341;42.048;24.650;2023-09-19T06:10:01;97611.88;;;18.41;68.87
16461;BME280;8341;42.048;24.650;2023-09-19T06:12:28;97602.00;;;18.57;69.03
16461;BME280;8341;42.048;24.650;2023-09-19T06:14:55;97603.09;;;18.72;67.25
16461;BME280;8341;42.048;24.650;2023-09-19T06:17:24;97603.38;;;18.39;70.80
16461;BME280;8341;42.048;24.650;2023-09-19T06:19:52;97605.06;;;18.18;71.84
16461;BME280;8341;42.048;24.650;2023-09-19T06:22:19;97600.66;;;18.04;72.57
16461;BME280;8341;42.048;24.650;2023-09-19T06:24:46;97605.63;;;18.11;73.07
16461;BME280;8341;42.048;24.650;2023-09-19T06:27:13;97608.72;;;18.02;73.54
16461;BME280;8341;42.048;24.650;2023-09-19T06:29:40;97604.63;;;18.08;73.16
16461;BME280;8341;42.048;24.650;2023-09-19T06:32:07;97599.09;;;18.14;73.26
16461;BME280;8341;42.048;24.650;2023-09-19T06:34:36;97600.22;;;18.30;72.63
16461;BME280;8341;42.048;24.650;2023-09-19T06:37:04;97600.34;;;18.43;71.33
16461;BME280;8341;42.048;24.650;2023-09-19T06:39:31;97603.28;;;18.56;71.11
16461;BME280;8341;42.048;24.650;2023-09-19T06:41:58;97608.97;;;18.63;70.81
16461;BME280;8341;42.048;24.650;2023-09-19T06:44:27;97609.94;;;18.66;70.25
16461;BME280;8341;42.048;24.650;2023-09-19T06:46:55;97607.31;;;18.79;69.77
16461;BME280;8341;42.048;24.650;2023-09-19T06:49:22;97596.88;;;18.91;69.69
16461;BME280;8341;42.048;24.650;2023-09-19T06:51:50;97603.84;;;18.73;69.79
16461;BME280;8341;42.048;24.650;2023-09-19T06:54:18;97602.00;;;18.81;69.56
16461;BME280;8341;42.048;24.650;2023-09-19T06:56:45;97607.59;;;18.75;70.01
16461;BME280;8341;42.048;24.650;2023-09-19T06:59:12;97600.03;;;18.52;70.92
16461;BME280;8341;42.048;24.650;2023-09-19T07:01:39;97610.97;;;18.63;70.36
16461;BME280;8341;42.048;24.650;2023-09-19T07:04:06;97603.63;;;18.71;70.73
16461;BME280;8341;42.048;24.650;2023-09-19T07:06:33;97589.28;;;18.72;70.05
16461;BME280;8341;42.048;24.650;2023-09-19T07:09:01;97598.16;;;18.65;71.10
16461;BME280;8341;42.048;24.650;2023-09-19T07:11:29;97588.25;;;18.51;71.81
16461;BME280;8341;42.048;24.650;2023-09-19T07:13:57;97592.63;;;18.36;72.35
16461;BME280;8341;42.048;24.650;2023-09-19T07:16:24;97578.88;;;18.30;72.03
16461;BME280;8341;42.048;24.650;2023-09-19T07:18:56;97595.31;;;18.47;71.84
16461;BME280;8341;42.048;24.650;2023-09-19T07:21:23;97595.38;;;18.65;71.60
16461;BME280;8341;42.048;24.650;2023-09-19T07:23:50;97590.69;;;18.85;70.81
16461;BME280;8341;42.048;24.650;2023-09-19T07:26:18;97597.03;;;18.98;69.57
16461;BME280;8341;42.048;24.650;2023-09-19T07:28:44;97595.31;;;18.95;69.85
16461;BME280;8341;42.048;24.650;2023-09-19T07:31:11;97589.81;;;19.14;68.64
16461;BME280;8341;42.048;24.650;2023-09-19T07:33:40;97600.22;;;19.26;68.45
16461;BME280;8341;42.048;24.650;2023-09-19T07:36:10;97595.00;;;19.23;68.67
16461;BME280;8341;42.048;24.650;2023-09-19T07:38:39;97593.31;;;19.39;68.33
16461;BME280;8341;42.048;24.650;2023-09-19T07:41:06;97589.97;;;19.46;68.29
16461;BME280;8341;42.048;24.650;2023-09-19T07:43:36;97593.84;;;19.56;67.81
16461;BME280;8341;42.048;24.650;2023-09-19T07:46:05;97583.81;;;19.53;68.82
16461;BME280;8341;42.048;24.650;2023-09-19T07:48:34;97586.81;;;19.55;67.26
16461;BME280;8341;42.048;24.650;2023-09-19T07:51:04;97575.81;;;19.30;68.99
16461;BME280;8341;42.048;24.650;2023-09-19T07:53:32;97576.63;;;19.44;68.93
16461;BME280;8341;42.048;24.650;2023-09-19T07:56:04;97580.19;;;19.20;68.24
16461;BME280;8341;42.048;24.650;2023-09-19T07:58:32;97573.03;;;19.49;68.70
16461;BME280;8341;42.048;24.650;2023-09-19T08:01:06;97572.91;;;19.60;69.07
16461;BME280;8341;42.048;24.650;2023-09-19T08:03:33;97572.75;;;19.71;68.31
16461;BME280;8341;42.048;24.650;2023-09-19T08:06:03;97571.00;;;19.87;66.55
16461;BME280;8341;42.048;24.650;2023-09-19T08:08:30;97571.38;;;19.78;66.66
16461;BME280;8341;42.048;24.650;2023-09-19T08:10:56;97573.88;;;20.13;66.36
16461;BME280;8341;42.048;24.650;2023-09-19T08:13:23;97561.72;;;20.16;65.50
16461;BME280;8341;42.048;24.650;2023-09-19T08:15:51;97558.53;;;20.44;65.23
16461;BME280;8341;42.048;24.650;2023-09-19T08:18:19;97558.00;;;20.58;63.30
16461;BME280;8341;42.048;24.650;2023-09-19T08:20:51;97566.44;;;20.92;63.40
16461;BME280;8341;42.048;24.650;2023-09-19T08:23:18;97565.69;;;21.18;62.11
16461;BME280;8341;42.048;24.650;2023-09-19T08:25:46;97554.22;;;21.35;61.80
16461;BME280;8341;42.048;24.650;2023-09-19T08:28:13;97557.81;;;21.56;61.96
16461;BME280;8341;42.048;24.650;2023-09-19T08:30:45;97546.94;;;21.78;60.50
16461;BME280;8341;42.048;24.650;2023-09-19T08:33:11;97556.56;;;21.77;59.96
16461;BME280;8341;42.048;24.650;2023-09-19T08:35:42;97538.47;;;21.84;59.36
16461;BME280;8341;42.048;24.650;2023-09-19T08:38:10;97538.09;;;21.80;59.90
16461;BME280;8341;42.048;24.650;2023-09-19T08:40:38;97542.56;;;21.49;59.62
16461;BME280;8341;42.048;24.650;2023-09-19T08:43:07;97549.50;;;21.76;59.27
16461;BME280;8341;42.048;24.650;2023-09-19T08:45:34;97538.19;;;21.88;59.74
16461;BME280;8341;42.048;24.650;2023-09-19T08:48:16;97536.00;;;21.94;59.42
16461;BME280;8341;42.048;24.650;2023-09-19T08:50:49;97531.03;;;21.79;59.87
16461;BME280;8341;42.048;24.650;2023-09-19T08:53:26;97533.84;;;21.66;59.39
16461;BME280;8341;42.048;24.650;2023-09-19T08:55:55;97529.94;;;21.82;59.37
16461;BME280;8341;42.048;24.650;2023-09-19T08:58:26;97527.66;;;21.94;59.16
16461;BME280;8341;42.048;24.650;2023-09-19T09:00:56;97533.25;;;21.80;58.76
16461;BME280;8341;42.048;24.650;2023-09-19T09:03:27;97539.22;;;21.84;59.72
16461;BME280;8341;42.048;24.650;2023-09-19T09:06:00;97535.69;;;21.63;59.84
16461;BME280;8341;42.048;24.650;2023-09-19T09:08:30;97535.63;;;21.76;59.46
16461;BME280;8341;42.048;24.650;2023-09-19T09:10:58;97536.19;;;21.75;59.39
16461;BME280;8341;42.048;24.650;2023-09-19T09:13:25;97535.44;;;21.74;59.49
16461;BME280;8341;42.048;24.650;2023-09-19T09:15:53;97534.16;;;21.96;59.37
16461;BME280;8341;42.048;24.650;2023-09-19T09:18:20;97533.66;;;21.98;58.02
16461;BME280;8341;42.048;24.650;2023-09-19T09:20:48;97523.16;;;21.70;58.92
16461;BME280;8341;42.048;24.650;2023-09-19T09:23:16;97527.88;;;21.96;60.00
16461;BME280;8341;42.048;24.650;2023-09-19T09:25:52;97533.16;;;22.07;59.18
16461;BME280;8341;42.048;24.650;2023-09-19T09:28:26;97517.28;;;22.35;59.52
16461;BME280;8341;42.048;24.650;2023-09-19T09:30:53;97511.78;;;22.43;57.68
16461;BME280;8341;42.048;24.650;2023-09-19T09:33:21;97518.81;;;22.16;58.58
16461;BME280;8341;42.048;24.650;2023-09-19T09:35:52;97507.75;;;22.23;58.74
16461;BME280;8341;42.048;24.650;2023-09-19T09:38:23;97511.72;;;22.35;57.65
16461;BME280;8341;42.048;24.650;2023-09-19T09:40:54;97505.91;;;22.54;57.96
16461;BME280;8341;42.048;24.650;2023-09-19T09:43:29;97504.59;;;22.27;56.71
16461;BME280;8341;42.048;24.650;2023-09-19T09:46:08;97501.22;;;22.70;58.04
16461;BME280;8341;42.048;24.650;2023-09-19T09:48:57;97499.66;;;22.89;56.39
16461;BME280;8341;42.048;24.650;2023-09-19T09:51:38;97487.81;;;22.96;56.00
16461;BME280;8341;42.048;24.650;2023-09-19T09:54:12;97491.59;;;23.22;55.78
16461;BME280;8341;42.048;24.650;2023-09-19T09:56:52;97488.75;;;23.57;55.57
16461;BME280;8341;42.048;24.650;2023-09-19T09:59:19;97484.88;;;23.60;55.58
16461;BME280;8341;42.048;24.650;2023-09-19T10:01:49;97480.06;;;23.61;53.40
16461;BME280;8341;42.048;24.650;2023-09-19T10:04:27;97476.75;;;23.85;54.35
16461;BME280;8341;42.048;24.650;2023-09-19T10:06:57;97471.38;;;23.95;52.75
16461;BME280;8341;42.048;24.650;2023-09-19T10:09:44;97476.97;;;24.17;51.70
16461;BME280;8341;42.048;24.650;2023-09-19T10:12:13;97482.53;;;24.25;51.83
16461;BME280;8341;42.048;24.650;2023-09-19T10:14:43;97478.06;;;24.29;52.32
16461;BME280;8341;42.048;24.650;2023-09-19T10:17:13;97473.44;;;24.09;51.31
16461;BME280;8341;42.048;24.650;2023-09-19T10:19:50;97461.31;;;23.69;52.46
16461;BME280;8341;42.048;24.650;2023-09-19T10:22:23;97461.00;;;24.10;53.85
16461;BME280;8341;42.048;24.650;2023-09-19T10:24:53;97466.56;;;24.10;51.74
16461;BME280;8341;42.048;24.650;2023-09-19T10:27:21;97466.38;;;24.23;52.61
16461;BME280;8341;42.048;24.650;2023-09-19T10:29:52;97463.19;;;24.19;51.53
16461;BME280;8341;42.048;24.650;2023-09-19T10:32:22;97459.47;;;24.24;50.88
16461;BME280;8341;42.048;24.650;2023-09-19T10:34:49;97458.00;;;24.23;50.90
16461;BME280;8341;42.048;24.650;2023-09-19T10:37:16;97459.81;;;24.51;50.79
16461;BME280;8341;42.048;24.650;2023-09-19T10:39:45;97450.84;;;24.83;51.54
16461;BME280;8341;42.048;24.650;2023-09-19T10:42:18;97449.66;;;24.94;50.16
16461;BME280;8341;42.048;24.650;2023-09-19T10:44:47;97442.84;;;24.72;49.68
16461;BME280;8341;42.048;24.650;2023-09-19T10:47:19;97445.19;;;24.98;49.95
16461;BME280;8341;42.048;24.650;2023-09-19T10:49:49;97443.16;;;24.91;49.45
16461;BME280;8341;42.048;24.650;2023-09-19T10:52:19;97441.13;;;24.84;49.86
16461;BME280;8341;42.048;24.650;2023-09-19T10:54:50;97435.84;;;25.03;50.36
16461;BME280;8341;42.048;24.650;2023-09-19T10:57:22;97423.00;;;25.08;48.89
16461;BME280;8341;42.048;24.650;2023-09-19T11:00:03;97430.19;;;25.18;48.93
16461;BME280;8341;42.048;24.650;2023-09-19T11:03:16;97418.03;;;24.91;48.14
16461;BME280;8341;42.048;24.650;2023-09-19T11:06:00;97414.06;;;24.62;49.24
16461;BME280;8341;42.048;24.650;2023-09-19T11:08:31;97410.28;;;24.74;49.64
16461;BME280;8341;42.048;24.650;2023-09-19T11:10:59;97406.88;;;24.91;49.82
16461;BME280;8341;42.048;24.650;2023-09-19T11:13:30;97410.13;;;25.12;49.44
16461;BME280;8341;42.048;24.650;2023-09-19T11:16:04;97414.28;;;25.04;48.72
16461;BME280;8341;42.048;24.650;2023-09-19T11:18:52;97402.63;;;25.22;48.95
16461;BME280;8341;42.048;24.650;2023-09-19T11:24:32;97396.78;;;25.35;48.34
16461;BME280;8341;42.048;24.650;2023-09-19T11:27:10;97389.47;;;25.40;47.81
16461;BME280;8341;42.048;24.650;2023-09-19T11:29:40;97387.78;;;25.44;46.96
16461;BME280;8341;42.048;24.650;2023-09-19T11:32:07;97375.25;;;25.53;47.55
16461;BME280;8341;42.048;24.650;2023-09-19T11:34:42;97375.97;;;25.78;48.07
16461;BME280;8341;42.048;24.650;2023-09-19T11:40:27;97372.66;;;25.55;47.85
16461;BME280;8341;42.048;24.650;2023-09-19T11:42:56;97374.16;;;25.73;47.18
16461;BME280;8341;42.048;24.650;2023-09-19T11:48:28;97369.47;;;25.76;47.52
16461;BME280;8341;42.048;24.650;2023-09-19T11:50:56;97353.69;;;25.95;45.60
16461;BME280;8341;42.048;24.650;2023-09-19T11:53:31;97355.00;;;26.11;45.32
16461;BME280;8341;42.048;24.650;2023-09-19T11:56:01;97347.22;;;26.44;45.50
16461;BME280;8341;42.048;24.650;2023-09-19T11:58:30;97346.13;;;26.23;44.48
16461;BME280;8341;42.048;24.650;2023-09-19T12:01:00;97343.63;;;26.09;45.55
16461;BME280;8341;42.048;24.650;2023-09-19T12:03:31;97341.28;;;26.23;44.36
16461;BME280;8341;42.048;24.650;2023-09-19T12:05:59;97340.09;;;26.60;45.76
16461;BME280;8341;42.048;24.650;2023-09-19T12:08:28;97334.84;;;26.64;44.77
16461;BME280;8341;42.048;24.650;2023-09-19T12:10:55;97333.78;;;26.43;45.25
16461;BME280;8341;42.048;24.650;2023-09-19T12:13:23;97327.63;;;26.27;44.51
16461;BME280;8341;42.048;24.650;2023-09-19T12:15:51;97325.50;;;26.35;44.62
16461;BME280;8341;42.048;24.650;2023-09-19T12:18:27;97327.63;;;26.27;44.54
16461;BME280;8341;42.048;24.650;2023-09-19T12:20:56;97329.94;;;26.21;44.86
16461;BME280;8341;42.048;24.650;2023-09-19T12:23:24;97320.91;;;26.13;45.11
16461;BME280;8341;42.048;24.650;2023-09-19T12:25:52;97327.97;;;26.31;46.31
16461;BME280;8341;42.048;24.650;2023-09-19T12:28:22;97330.50;;;26.20;44.81
16461;BME280;8341;42.048;24.650;2023-09-19T12:30:50;97326.28;;;25.94;45.14
16461;BME280;8341;42.048;24.650;2023-09-19T12:33:21;97326.78;;;26.00;44.93
16461;BME280;8341;42.048;24.650;2023-09-19T12:35:51;97322.03;;;25.93;44.95
16461;BME280;8341;42.048;24.650;2023-09-19T12:38:24;97334.28;;;25.97;45.79
16461;BME280;8341;42.048;24.650;2023-09-19T12:40:54;97335.56;;;25.96;44.41
16461;BME280;8341;42.048;24.650;2023-09-19T12:43:22;97326.88;;;25.75;44.90
16461;BME280;8341;42.048;24.650;2023-09-19T12:45:50;97330.28;;;25.41;45.21
16461;BME280;8341;42.048;24.650;2023-09-19T12:48:22;97320.97;;;25.46;45.10
16461;BME280;8341;42.048;24.650;2023-09-19T12:51:02;97318.34;;;25.48;45.13
16461;BME280;8341;42.048;24.650;2023-09-19T12:53:32;97321.34;;;25.43;45.51
16461;BME280;8341;42.048;24.650;2023-09-19T12:56:01;97316.47;;;25.51;45.36
16461;BME280;8341;42.048;24.650;2023-09-19T12:58:32;97313.44;;;25.57;45.45
16461;BME280;8341;42.048;24.650;2023-09-19T13:01:00;97315.38;;;25.46;45.25
16461;BME280;8341;42.048;24.650;2023-09-19T13:03:28;97313.75;;;25.61;45.55
16461;BME280;8341;42.048;24.650;2023-09-19T13:05:58;97313.75;;;25.61;45.07
16461;BME280;8341;42.048;24.650;2023-09-19T13:08:27;97306.97;;;25.71;45.49
16461;BME280;8341;42.048;24.650;2023-09-19T13:11:05;97302.47;;;25.93;44.79
16461;BME280;8341;42.048;24.650;2023-09-19T13:13:35;97296.28;;;25.94;44.96
16461;BME280;8341;42.048;24.650;2023-09-19T13:16:03;97299.09;;;26.11;44.20
16461;BME280;8341;42.048;24.650;2023-09-19T13:18:42;97293.78;;;26.23;44.12
16461;BME280;8341;42.048;24.650;2023-09-19T13:21:11;97294.31;;;26.39;44.60
16461;BME280;8341;42.048;24.650;2023-09-19T13:23:42;97298.88;;;26.34;43.78